Arvada, Wyoming
Current Conditions -  °F | °C
As of 8:53 AM on Thursday 30 Oct 2014 (Local Time) from KBYG Reporting Station
Clear Clear  
Wind Chill:   Ceiling: Unl
Heat Index:   Visibility: 10mi
Dew Point: -4°   Wind: 5mph
Humidity: 49%   Direction: 230°SW
Pressure: 30.35"   Gusts: NA
Location:  44.65°N, 106.13°W
Report Text: KBYG 301453Z AUTO 23004KT 10SM CLR 06/M04 A3035 RMK AO2 SLP277 T00611039 53012
Loading
Personal Weather Stations






























Interactive Weather Map New forecast layout! Learn more

10-Day Weather Forecast

Advertisements
Track Severe Weather on mobile